Time;durP1;ratioP1;P1;durP2;ratioP2;P2;SDS_P1;SDS_P2;PMS_P1;PMS_P2;Temp;Humidity;BMP_temperature;BMP_pressure;BME280_temperature;BME280_humidity;BME280_pressure;Samples;Min_cycle;Max_cycle;Signal;HPM_P1;HPM_P2
2023/06/13 00:01:22;;;;;;;5.43;4.23;;;20.10;40.40;;;;;;4977410;28;20304;-72
2023/06/13 00:03:48;;;;;;;5.00;4.50;;;20.10;40.50;;;;;;4965504;28;20203;-74
2023/06/13 00:06:15;;;;;;;4.43;4.00;;;20.10;40.50;;;;;;4945416;28;20441;-73
2023/06/13 00:08:45;;;;;;;5.23;3.93;;;20.10;40.60;;;;;;4938691;29;20844;-72
2023/06/13 00:11:10;;;;;;;7.47;4.20;;;20.00;40.70;;;;;;4967359;28;20463;-74
2023/06/13 00:13:39;;;;;;;4.33;3.93;;;20.00;40.90;;;;;;4964614;28;20424;-73
2023/06/13 00:16:05;;;;;;;5.13;4.20;;;19.90;41.00;;;;;;4958178;28;20200;-72
2023/06/13 00:18:31;;;;;;;4.43;4.03;;;19.90;41.20;;;;;;4955250;28;20430;-71
2023/06/13 00:20:58;;;;;;;4.93;3.83;;;19.80;41.20;;;;;;4957632;29;20452;-74
2023/06/13 00:23:25;;;;;;;4.83;3.60;;;19.80;41.50;;;;;;4951254;28;20414;-72
2023/06/13 00:25:51;;;;;;;4.10;3.60;;;19.70;41.60;;;;;;4938667;28;20766;-72
2023/06/13 00:28:17;;;;;;;3.70;3.40;;;19.70;41.80;;;;;;4940655;28;20460;-71
2023/06/13 00:30:43;;;;;;;4.70;3.93;;;19.60;41.90;;;;;;4947108;28;20463;-71
2023/06/13 00:33:10;;;;;;;5.27;4.30;;;19.60;41.90;;;;;;4970980;28;20215;-72
2023/06/13 00:35:36;;;;;;;4.20;3.20;;;19.60;41.90;;;;;;4929235;28;20822;-72
2023/06/13 00:38:06;;;;;;;3.80;3.33;;;19.60;42.00;;;;;;4937589;29;20827;-72
2023/06/13 00:40:32;;;;;;;6.80;4.07;;;19.50;42.20;;;;;;4944297;28;20436;-72
2023/06/13 00:42:58;;;;;;;6.10;4.23;;;19.50;42.30;;;;;;4950219;29;20424;-72
2023/06/13 00:45:24;;;;;;;5.67;3.87;;;19.50;42.40;;;;;;4971646;28;20873;-72
2023/06/13 00:47:57;;;;;;;5.53;4.67;;;19.50;42.50;;;;;;4940490;28;20185;-72
2023/06/13 00:50:28;;;;;;;4.70;4.00;;;19.50;42.50;;;;;;4942929;28;20435;-71
2023/06/13 00:52:55;;;;;;;6.07;4.27;;;19.40;42.50;;;;;;4975497;28;20420;-71
2023/06/13 00:55:24;;;;;;;4.70;3.90;;;19.40;42.70;;;;;;4957688;29;20756;-74
2023/06/13 00:57:53;;;;;;;5.40;3.67;;;19.40;42.70;;;;;;4954675;28;20413;-71
2023/06/13 01:00:22;;;;;;;5.80;4.40;;;19.30;42.80;;;;;;4937714;29;20425;-72
2023/06/13 01:02:48;;;;;;;5.23;4.50;;;19.30;42.90;;;;;;4938229;29;20417;-72
2023/06/13 01:05:13;;;;;;;4.60;3.40;;;19.30;43.00;;;;;;4940101;29;20710;-72
2023/06/13 01:07:41;;;;;;;4.70;3.70;;;19.30;43.10;;;;;;4957740;28;20195;-70
2023/06/13 01:10:09;;;;;;;3.60;3.30;;;19.20;43.20;;;;;;4958941;28;20530;-72
2023/06/13 01:12:45;;;;;;;3.67;3.37;;;19.10;43.30;;;;;;4976791;28;20463;-72
2023/06/13 01:15:16;;;;;;;4.60;3.57;;;19.10;43.50;;;;;;4976354;28;20455;-71
2023/06/13 01:17:57;;;;;;;3.97;3.23;;;19.00;43.70;;;;;;4940501;29;20470;-72
2023/06/13 01:20:26;;;;;;;4.70;4.20;;;19.00;44.00;;;;;;4955744;29;20438;-72
2023/06/13 01:22:57;;;;;;;5.60;4.50;;;19.00;44.20;;;;;;4922715;29;20448;-72
2023/06/13 01:25:37;;;;;;;4.83;4.20;;;19.00;44.30;;;;;;4938146;29;20421;-71
2023/06/13 01:28:05;;;;;;;4.93;4.43;;;18.90;44.40;;;;;;4938226;29;20424;-73
2023/06/13 01:30:31;;;;;;;4.63;3.93;;;18.90;44.50;;;;;;4921405;29;20436;-72
2023/06/13 01:32:58;;;;;;;4.37;3.80;;;18.90;44.70;;;;;;4942446;29;20709;-73
2023/06/13 01:35:24;;;;;;;3.63;3.33;;;18.80;44.80;;;;;;4944101;29;20464;-72
2023/06/13 01:37:50;;;;;;;6.60;4.57;;;18.80;44.90;;;;;;4964786;28;20447;-73
2023/06/13 01:40:16;;;;;;;5.40;4.10;;;18.70;45.10;;;;;;4960862;29;20428;-72
2023/06/13 01:42:42;;;;;;;5.70;3.73;;;18.70;45.30;;;;;;4944975;28;20599;-72
2023/06/13 01:45:08;;;;;;;5.00;4.50;;;18.70;45.40;;;;;;4963346;28;20186;-72
2023/06/13 01:47:41;;;;;;;4.97;4.03;;;18.70;45.60;;;;;;4945090;29;20228;-73
2023/06/13 01:50:12;;;;;;;5.27;4.60;;;18.70;45.50;;;;;;4957594;28;20455;-72
2023/06/13 01:52:50;;;;;;;5.37;4.47;;;18.70;45.50;;;;;;4941581;29;20443;-72
2023/06/13 01:55:27;;;;;;;5.40;4.03;;;18.70;45.50;;;;;;4952887;28;20470;-72
2023/06/13 01:58:02;;;;;;;8.27;5.50;;;18.70;45.50;;;;;;4960948;29;20475;-72
2023/06/13 02:00:28;;;;;;;5.30;4.80;;;18.70;45.70;;;;;;4955117;28;20449;-72
2023/06/13 02:02:55;;;;;;;5.40;4.67;;;18.70;45.70;;;;;;4941555;29;20428;-72
2023/06/13 02:05:25;;;;;;;6.40;4.47;;;18.70;45.80;;;;;;4959054;28;20451;-71
2023/06/13 02:07:53;;;;;;;4.37;3.97;;;18.60;45.90;;;;;;4943762;29;20757;-72
2023/06/13 02:10:19;;;;;;;4.60;4.00;;;18.60;45.90;;;;;;4959791;28;20459;-75
2023/06/13 02:12:44;;;;;;;6.00;4.83;;;18.60;46.10;;;;;;4958762;28;20780;-72
2023/06/13 02:15:10;;;;;;;4.90;4.40;;;18.50;46.10;;;;;;4941412;29;20220;-75
2023/06/13 02:17:36;;;;;;;4.70;4.30;;;18.50;46.10;;;;;;4959937;29;20203;-73
2023/06/13 02:20:03;;;;;;;8.07;4.00;;;18.50;46.20;;;;;;4957681;28;20213;-72
2023/06/13 02:22:29;;;;;;;5.00;4.50;;;18.50;46.40;;;;;;4959909;28;20478;-71
2023/06/13 02:24:55;;;;;;;5.93;4.53;;;18.40;46.50;;;;;;4941743;28;20491;-72
2023/06/13 02:27:20;;;;;;;5.57;4.40;;;18.40;46.60;;;;;;4966548;28;20460;-72
2023/06/13 02:29:46;;;;;;;4.77;4.17;;;18.40;46.80;;;;;;4952758;29;20447;-71
2023/06/13 02:32:11;;;;;;;8.10;7.10;;;18.40;46.80;;;;;;4940615;29;20188;-72
2023/06/13 02:34:37;;;;;;;5.90;5.23;;;18.40;46.90;;;;;;4952494;28;20215;-72
2023/06/13 02:37:05;;;;;;;5.00;4.50;;;18.40;46.90;;;;;;4948597;28;20216;-72
2023/06/13 02:39:31;;;;;;;6.63;4.70;;;18.30;47.00;;;;;;4948286;28;20431;-71
2023/06/13 02:41:57;;;;;;;4.50;4.10;;;18.30;47.10;;;;;;4953054;28;20421;-73
2023/06/13 02:44:22;;;;;;;8.10;4.37;;;18.30;47.10;;;;;;4952230;29;20240;-72
2023/06/13 02:46:48;;;;;;;5.13;4.63;;;18.30;47.30;;;;;;4957313;28;20202;-71
2023/06/13 02:49:14;;;;;;;5.30;4.53;;;18.30;47.40;;;;;;4965708;28;20638;-71
2023/06/13 02:51:40;;;;;;;6.37;5.20;;;18.20;47.40;;;;;;4959893;29;20584;-73
2023/06/13 02:54:07;;;;;;;6.73;5.57;;;18.20;47.50;;;;;;4954246;28;20450;-72
2023/06/13 02:56:33;;;;;;;5.73;4.40;;;18.30;47.60;;;;;;4949721;28;20246;-72
2023/06/13 02:58:59;;;;;;;5.70;4.70;;;18.30;47.60;;;;;;4951093;28;20506;-73
2023/06/13 03:01:26;;;;;;;5.40;4.90;;;18.20;47.60;;;;;;4942176;28;20413;-73
2023/06/13 03:03:53;;;;;;;6.60;4.87;;;18.20;47.70;;;;;;4941648;29;20237;-72
2023/06/13 03:06:18;;;;;;;5.40;4.70;;;18.10;47.70;;;;;;4942089;28;20988;-71
2023/06/13 03:08:45;;;;;;;5.27;4.50;;;18.10;48.00;;;;;;4938707;29;20182;-73
2023/06/13 03:11:15;;;;;;;5.10;4.60;;;18.00;48.00;;;;;;4941636;29;20541;-72
2023/06/13 03:13:41;;;;;;;5.93;4.90;;;18.00;48.20;;;;;;4957916;29;20419;-72
2023/06/13 03:16:08;;;;;;;7.47;4.33;;;17.90;48.20;;;;;;4941832;29;21248;-72
2023/06/13 03:18:35;;;;;;;6.40;5.80;;;17.90;48.50;;;;;;4941423;28;20193;-72
2023/06/13 03:21:03;;;;;;;6.53;4.33;;;17.90;48.60;;;;;;4942332;28;20419;-72
2023/06/13 03:23:28;;;;;;;5.17;4.67;;;17.90;48.70;;;;;;4959967;29;20709;-72
2023/06/13 03:25:54;;;;;;;6.03;4.10;;;17.90;48.70;;;;;;4959724;29;20423;-72
2023/06/13 03:28:22;;;;;;;5.17;4.67;;;17.90;48.80;;;;;;4967535;28;20264;-72
2023/06/13 03:30:51;;;;;;;5.07;4.40;;;17.90;48.80;;;;;;4940417;28;20446;-72
2023/06/13 03:33:17;;;;;;;6.67;5.10;;;17.90;48.90;;;;;;4939497;29;20423;-73
2023/06/13 03:35:44;;;;;;;6.10;4.73;;;17.90;49.00;;;;;;4941689;29;20471;-71
2023/06/13 03:38:12;;;;;;;6.43;4.60;;;17.90;49.10;;;;;;4938175;29;20743;-72
2023/06/13 03:40:38;;;;;;;5.27;4.17;;;17.90;49.20;;;;;;4951459;28;20813;-71
2023/06/13 03:43:03;;;;;;;6.50;4.43;;;17.90;49.30;;;;;;4977521;28;20467;-71
2023/06/13 03:45:29;;;;;;;5.80;3.80;;;17.90;49.30;;;;;;4965856;28;20223;-72
2023/06/13 03:47:54;;;;;;;4.60;3.67;;;17.90;49.30;;;;;;4959285;28;20264;-72
2023/06/13 03:50:20;;;;;;;6.13;5.50;;;17.90;49.30;;;;;;4938426;29;20757;-73
2023/06/13 03:52:46;;;;;;;8.00;5.40;;;17.90;49.40;;;;;;4958114;28;20474;-72
2023/06/13 03:55:11;;;;;;;6.10;4.47;;;17.90;49.40;;;;;;4941230;29;20324;-72
2023/06/13 03:57:37;;;;;;;5.77;4.93;;;17.90;49.40;;;;;;4958956;28;20193;-73
2023/06/13 04:00:05;;;;;;;5.00;4.50;;;17.90;49.50;;;;;;4951590;28;20202;-73
2023/06/13 04:02:38;;;;;;;8.37;5.40;;;17.90;49.50;;;;;;4967340;28;20184;-72
2023/06/13 04:05:05;;;;;;;6.47;4.67;;;17.90;49.60;;;;;;4950632;28;20427;-73
2023/06/13 04:07:33;;;;;;;7.70;4.73;;;17.90;49.60;;;;;;4963183;29;20187;-72
2023/06/13 04:10:01;;;;;;;6.83;4.97;;;17.90;50.20;;;;;;4942592;29;20426;-73
2023/06/13 04:12:28;;;;;;;7.50;5.17;;;18.00;49.70;;;;;;4927158;29;20463;-73
2023/06/13 04:14:54;;;;;;;7.40;4.87;;;18.00;49.60;;;;;;4928065;29;20481;-73
2023/06/13 04:17:20;;;;;;;7.10;4.83;;;18.10;49.70;;;;;;4909442;29;20424;-73
2023/06/13 04:19:48;;;;;;;6.17;5.03;;;18.10;49.50;;;;;;4932099;29;20448;-74
2023/06/13 04:22:16;;;;;;;8.10;4.80;;;18.10;49.30;;;;;;4920736;29;20205;-74
2023/06/13 04:24:42;;;;;;;8.60;5.07;;;18.20;49.20;;;;;;4944117;29;20457;-74
2023/06/13 04:27:08;;;;;;;8.17;5.57;;;18.20;49.00;;;;;;4943083;29;20426;-73
2023/06/13 04:29:34;;;;;;;5.80;4.90;;;18.30;48.90;;;;;;4923330;29;20775;-77
2023/06/13 04:32:01;;;;;;;5.07;3.93;;;18.30;48.90;;;;;;4924708;29;20210;-73
2023/06/13 04:34:27;;;;;;;4.60;4.17;;;18.40;48.90;;;;;;4903495;29;20436;-73
2023/06/13 04:36:56;;;;;;;6.70;4.90;;;18.40;48.80;;;;;;4934720;29;20462;-73
2023/06/13 04:39:24;;;;;;;6.30;5.20;;;18.50;48.80;;;;;;4943012;29;20291;-73
2023/06/13 04:41:55;;;;;;;4.60;4.20;;;18.50;48.80;;;;;;4938244;29;20452;-72
2023/06/13 04:44:25;;;;;;;4.57;4.17;;;18.60;48.70;;;;;;4925087;29;20426;-73
2023/06/13 04:46:51;;;;;;;5.37;4.20;;;19.10;48.10;;;;;;4939508;29;20431;-73
2023/06/13 04:49:17;;;;;;;4.57;4.10;;;19.60;47.30;;;;;;4917093;29;20463;-73
2023/06/13 04:51:44;;;;;;;4.70;3.90;;;20.30;46.50;;;;;;4943645;29;20417;-75
2023/06/13 04:54:10;;;;;;;5.83;5.00;;;21.00;45.50;;;;;;4926549;29;20197;-73
2023/06/13 04:56:37;;;;;;;7.80;4.70;;;21.60;44.40;;;;;;4945056;29;20691;-73
2023/06/13 04:59:03;;;;;;;5.13;4.30;;;22.10;43.60;;;;;;4928464;29;20288;-74
2023/06/13 05:01:32;;;;;;;7.40;4.83;;;22.50;42.60;;;;;;4937919;29;20446;-75
2023/06/13 05:03:58;;;;;;;5.97;5.33;;;22.80;41.80;;;;;;4925104;29;20189;-73
2023/06/13 05:06:23;;;;;;;4.83;3.90;;;23.10;41.50;;;;;;4906280;29;20411;-72
2023/06/13 05:08:49;;;;;;;9.40;5.23;;;23.30;41.20;;;;;;4940944;29;20625;-72
2023/06/13 05:11:15;;;;;;;6.90;5.70;;;23.40;40.20;;;;;;4934018;29;20287;-73
2023/06/13 05:13:40;;;;;;;8.17;5.20;;;23.60;40.40;;;;;;4967878;28;20427;-73
2023/06/13 05:16:06;;;;;;;6.47;5.23;;;23.80;39.60;;;;;;4980386;28;20204;-73
2023/06/13 05:18:33;;;;;;;7.23;5.10;;;24.10;39.00;;;;;;4955508;28;20192;-73
2023/06/13 05:20:59;;;;;;;6.80;5.00;;;24.10;39.20;;;;;;4965146;28;20247;-73
2023/06/13 05:23:25;;;;;;;8.43;5.50;;;24.30;39.10;;;;;;4980634;28;20428;-74
2023/06/13 05:25:51;;;;;;;5.43;4.93;;;24.60;38.60;;;;;;4980965;28;20171;-73
2023/06/13 05:28:17;;;;;;;6.17;5.20;;;24.70;38.30;;;;;;4976080;28;20685;-72
2023/06/13 05:30:43;;;;;;;7.17;4.37;;;24.90;38.10;;;;;;4942013;29;20472;-73
2023/06/13 05:33:09;;;;;;;6.67;5.13;;;24.80;37.90;;;;;;4963499;28;20527;-74
2023/06/13 05:35:35;;;;;;;7.77;5.80;;;24.90;37.90;;;;;;4971505;28;20216;-73
2023/06/13 05:38:00;;;;;;;5.97;4.23;;;25.10;37.80;;;;;;4969432;28;20281;-74
2023/06/13 05:40:26;;;;;;;6.17;4.77;;;25.30;37.60;;;;;;4941830;29;20209;-72
2023/06/13 05:42:51;;;;;;;6.50;5.10;;;25.60;36.90;;;;;;4942703;29;20725;-73
2023/06/13 05:45:17;;;;;;;6.70;5.63;;;25.60;36.30;;;;;;4978050;28;20196;-71
2023/06/13 05:47:42;;;;;;;5.90;5.37;;;25.40;36.50;;;;;;4981310;28;20180;-74
2023/06/13 05:50:08;;;;;;;5.57;4.97;;;25.30;36.70;;;;;;4953863;28;20275;-77
2023/06/13 05:52:35;;;;;;;5.37;4.87;;;25.30;36.90;;;;;;4960923;29;20229;-72
2023/06/13 05:55:01;;;;;;;5.10;4.50;;;25.30;36.80;;;;;;4947747;29;20452;-74
2023/06/13 05:57:41;;;;;;;5.03;4.53;;;25.40;36.40;;;;;;4942405;29;20845;-73
2023/06/13 06:00:14;;;;;;;6.63;4.77;;;25.50;36.10;;;;;;4925768;29;20493;-73
2023/06/13 06:02:42;;;;;;;10.20;6.00;;;25.70;36.10;;;;;;4933738;29;20465;-76
2023/06/13 06:05:14;;;;;;;5.97;4.53;;;25.80;35.80;;;;;;4932198;29;20433;-74
2023/06/13 06:07:41;;;;;;;6.30;4.97;;;25.80;35.70;;;;;;4967721;29;20412;-75
2023/06/13 06:10:07;;;;;;;6.27;4.70;;;26.00;35.40;;;;;;4954163;29;20543;-76
2023/06/13 06:12:33;;;;;;;7.00;5.20;;;25.70;35.60;;;;;;4947344;29;20461;-76
2023/06/13 06:15:00;;;;;;;7.23;4.53;;;25.90;35.60;;;;;;4949266;29;20410;-78
2023/06/13 06:17:25;;;;;;;6.17;4.60;;;26.00;35.60;;;;;;4934078;29;20418;-76
2023/06/13 06:19:51;;;;;;;5.50;4.20;;;26.20;35.70;;;;;;4933667;28;20433;-77
2023/06/13 06:22:17;;;;;;;5.53;4.43;;;26.60;35.20;;;;;;4971604;29;20209;-77
2023/06/13 06:24:43;;;;;;;6.10;5.30;;;26.80;34.80;;;;;;4937081;29;20417;-76
2023/06/13 06:27:11;;;;;;;7.60;4.80;;;26.90;34.40;;;;;;4951820;29;20177;-76
2023/06/13 06:29:37;;;;;;;5.00;4.50;;;27.10;34.90;;;;;;4944249;29;20217;-77
2023/06/13 06:32:03;;;;;;;5.77;4.60;;;27.30;33.80;;;;;;4965512;28;20416;-77
2023/06/13 06:34:28;;;;;;;5.23;3.97;;;27.20;33.70;;;;;;4974972;28;20948;-76
2023/06/13 06:36:54;;;;;;;6.40;4.60;;;27.10;34.10;;;;;;4936986;29;20277;-74
2023/06/13 06:39:19;;;;;;;6.67;5.20;;;27.20;33.90;;;;;;4931768;29;20225;-75
2023/06/13 06:41:45;;;;;;;6.73;5.03;;;27.00;33.60;;;;;;4953222;29;20185;-76
2023/06/13 06:44:11;;;;;;;5.93;5.30;;;26.80;33.90;;;;;;4954116;29;20268;-76
2023/06/13 06:46:37;;;;;;;8.00;6.17;;;26.90;33.70;;;;;;4952840;29;20185;-75
2023/06/13 06:49:03;;;;;;;6.87;4.53;;;26.80;33.80;;;;;;4940859;28;20208;-76
2023/06/13 06:51:29;;;;;;;6.17;4.57;;;26.70;34.10;;;;;;4987229;28;20447;-75
2023/06/13 06:53:56;;;;;;;5.70;5.03;;;26.70;33.80;;;;;;4952629;29;20200;-75
2023/06/13 06:56:22;;;;;;;5.70;5.10;;;26.60;33.70;;;;;;4951512;29;20466;-77
2023/06/13 06:58:48;;;;;;;5.03;4.57;;;26.60;33.90;;;;;;4966297;29;20432;-77
2023/06/13 07:01:18;;;;;;;6.00;5.50;;;26.60;33.80;;;;;;4950030;29;20462;-76
2023/06/13 07:03:44;;;;;;;4.93;4.43;;;26.60;33.90;;;;;;4951670;29;20181;-75
2023/06/13 07:06:11;;;;;;;7.33;4.90;;;26.60;34.20;;;;;;4952193;29;20432;-76
2023/06/13 07:08:37;;;;;;;4.73;4.33;;;26.50;34.00;;;;;;4956616;28;20428;-75
2023/06/13 07:11:03;;;;;;;5.70;5.10;;;26.30;34.20;;;;;;4951533;29;20453;-79
2023/06/13 07:13:29;;;;;;;7.00;4.57;;;26.30;34.00;;;;;;4969849;29;20436;-77
2023/06/13 07:15:55;;;;;;;5.93;4.47;;;26.20;34.30;;;;;;4936936;29;20213;-75
2023/06/13 07:18:21;;;;;;;8.30;5.40;;;26.20;34.50;;;;;;4954926;29;20212;-78
2023/06/13 07:20:46;;;;;;;4.60;4.20;;;26.20;34.40;;;;;;4938451;29;20448;-75
2023/06/13 07:23:12;;;;;;;7.27;4.80;;;26.00;34.60;;;;;;4952980;29;20409;-78
2023/06/13 07:25:41;;;;;;;6.63;4.73;;;25.90;34.90;;;;;;4930242;29;20318;-75
2023/06/13 07:28:07;;;;;;;7.47;4.30;;;25.70;35.10;;;;;;4954296;29;20257;-77
2023/06/13 07:30:33;;;;;;;10.53;5.43;;;25.70;35.10;;;;;;4967385;29;20444;-77
2023/06/13 07:32:58;;;;;;;5.43;4.60;;;25.60;35.30;;;;;;4919846;29;20443;-75
2023/06/13 07:35:24;;;;;;;4.30;3.90;;;25.50;35.80;;;;;;4939442;28;20224;-75
2023/06/13 07:37:52;;;;;;;5.47;4.93;;;25.40;36.20;;;;;;4950964;29;20263;-76
2023/06/13 07:40:20;;;;;;;5.27;4.77;;;25.30;35.80;;;;;;4948381;29;20416;-77
2023/06/13 07:42:45;;;;;;;6.40;5.50;;;25.00;36.20;;;;;;4959343;29;20485;-76
2023/06/13 07:45:12;;;;;;;5.40;4.90;;;24.50;36.80;;;;;;4951050;29;20426;-79
2023/06/13 07:47:38;;;;;;;7.00;4.43;;;24.20;37.50;;;;;;4965954;29;20177;-77
2023/06/13 07:50:04;;;;;;;5.77;5.00;;;24.10;37.80;;;;;;4948111;29;20454;-75
2023/06/13 07:52:30;;;;;;;8.07;4.60;;;24.00;37.50;;;;;;4954479;29;20425;-77
2023/06/13 07:54:56;;;;;;;5.90;4.73;;;23.90;38.00;;;;;;4953691;29;20433;-75
2023/06/13 07:57:21;;;;;;;5.87;5.27;;;23.70;39.00;;;;;;4955998;29;20184;-76
2023/06/13 07:59:47;;;;;;;5.93;5.30;;;23.60;38.30;;;;;;4968156;29;20268;-76
2023/06/13 08:02:12;;;;;;;6.90;4.80;;;23.60;38.60;;;;;;4968974;29;20561;-73
2023/06/13 08:04:38;;;;;;;5.60;4.40;;;23.70;38.50;;;;;;4970363;29;20192;-78
2023/06/13 08:07:04;;;;;;;4.83;4.37;;;23.70;38.00;;;;;;4967084;29;20510;-76
2023/06/13 08:09:30;;;;;;;7.37;4.27;;;23.70;38.10;;;;;;4935385;29;20217;-77
2023/06/13 08:11:58;;;;;;;6.10;4.50;;;23.80;38.00;;;;;;4950961;29;20464;-76
2023/06/13 08:14:23;;;;;;;5.20;4.63;;;23.80;38.20;;;;;;4958758;29;20557;-75
2023/06/13 08:16:52;;;;;;;4.50;3.97;;;23.80;38.40;;;;;;4936492;29;20449;-77
2023/06/13 08:19:27;;;;;;;6.37;4.70;;;24.00;38.00;;;;;;4937143;29;20441;-77
2023/06/13 08:21:53;;;;;;;5.40;4.00;;;24.00;37.60;;;;;;4953141;29;20180;-74
2023/06/13 08:24:19;;;;;;;4.90;4.33;;;24.10;38.10;;;;;;4971116;29;20440;-77
2023/06/13 08:26:44;;;;;;;8.23;5.50;;;24.20;38.20;;;;;;4952876;29;20203;-76
2023/06/13 08:29:13;;;;;;;5.73;4.23;;;24.30;37.60;;;;;;4975512;29;20205;-78
2023/06/13 08:31:40;;;;;;;5.10;4.43;;;24.20;36.80;;;;;;4945874;29;20188;-78
2023/06/13 08:34:13;;;;;;;6.23;3.90;;;24.20;36.90;;;;;;4964213;28;20413;-79
2023/06/13 08:36:42;;;;;;;7.67;4.97;;;24.10;36.70;;;;;;4929601;29;20481;-78
2023/06/13 08:39:08;;;;;;;7.13;4.17;;;24.10;37.20;;;;;;4944910;29;20456;-80
2023/06/13 08:41:37;;;;;;;5.33;4.87;;;24.00;37.30;;;;;;4942921;29;20855;-78
2023/06/13 08:44:03;;;;;;;6.90;4.00;;;24.10;37.40;;;;;;4955705;29;20193;-78
2023/06/13 08:46:30;;;;;;;4.80;4.40;;;24.20;36.90;;;;;;4943146;29;20466;-79
2023/06/13 08:48:57;;;;;;;5.43;4.30;;;24.20;36.90;;;;;;4958698;28;20446;-80
2023/06/13 08:51:27;;;;;;;8.40;5.60;;;24.20;37.20;;;;;;4943923;29;20405;-78
2023/06/13 08:56:33;;;;;;;7.40;4.73;;;24.20;37.00;;;;;;4357661;26;20483;-79
2023/06/13 08:59:09;;;;;;;5.13;4.00;;;24.30;37.20;;;;;;4993750;28;20463;-78
2023/06/13 09:01:37;;;;;;;4.50;4.10;;;24.30;37.30;;;;;;4973202;28;20453;-78
2023/06/13 09:04:12;;;;;;;4.90;4.50;;;24.40;37.40;;;;;;4978399;28;20419;-77
2023/06/13 09:06:39;;;;;;;8.10;4.87;;;24.60;37.20;;;;;;4975011;28;20404;-76
2023/06/13 09:09:09;;;;;;;5.80;4.80;;;24.60;37.30;;;;;;4963590;28;20508;-77
2023/06/13 09:11:35;;;;;;;5.17;4.50;;;24.70;37.50;;;;;;4956842;29;20396;-78
2023/06/13 09:14:03;;;;;;;6.00;4.60;;;24.80;37.30;;;;;;4947743;28;20455;-78
2023/06/13 09:16:30;;;;;;;5.40;4.90;;;24.70;37.50;;;;;;4971928;28;20494;-75
2023/06/13 09:18:58;;;;;;;5.23;4.70;;;24.80;37.70;;;;;;4969765;28;20815;-78
2023/06/13 09:21:24;;;;;;;6.40;4.90;;;24.80;37.90;;;;;;4974424;28;20404;-74
2023/06/13 09:23:54;;;;;;;5.40;4.87;;;24.80;37.90;;;;;;4972989;28;20412;-77
2023/06/13 09:26:19;;;;;;;7.60;4.93;;;24.90;37.70;;;;;;4954865;28;20427;-76
2023/06/13 09:28:47;;;;;;;10.63;5.80;;;24.90;37.30;;;;;;4986643;28;20431;-77
2023/06/13 09:31:14;;;;;;;5.40;3.87;;;24.90;37.20;;;;;;4967181;28;20436;-78
2023/06/13 09:33:40;;;;;;;4.83;4.33;;;24.90;36.60;;;;;;4987435;28;20427;-75
2023/06/13 09:36:06;;;;;;;4.97;4.50;;;24.90;36.80;;;;;;4969594;28;21001;-76
2023/06/13 09:38:42;;;;;;;7.67;5.00;;;25.00;36.60;;;;;;4952314;29;20189;-74
2023/06/13 09:41:11;;;;;;;8.03;4.80;;;25.10;36.60;;;;;;4955155;28;20420;-78
2023/06/13 09:43:38;;;;;;;6.47;5.60;;;25.00;36.70;;;;;;4989976;28;20418;-79
2023/06/13 09:46:04;;;;;;;5.57;4.70;;;25.10;37.10;;;;;;4984879;28;20407;-77
2023/06/13 09:48:29;;;;;;;5.30;4.30;;;25.20;36.70;;;;;;4970905;28;20484;-78
2023/06/13 09:50:55;;;;;;;4.93;3.80;;;25.20;36.60;;;;;;4954059;28;20216;-78
2023/06/13 09:53:21;;;;;;;4.40;4.00;;;25.20;36.50;;;;;;4942337;29;20189;-78
2023/06/13 09:55:49;;;;;;;4.83;4.30;;;25.30;36.50;;;;;;4973494;29;20546;-77
2023/06/13 09:58:15;;;;;;;4.90;3.90;;;25.40;36.60;;;;;;4962935;28;20183;-78
2023/06/13 10:00:41;;;;;;;6.03;4.77;;;25.50;35.90;;;;;;4968114;28;20425;-75
2023/06/13 10:03:08;;;;;;;4.07;3.77;;;25.60;35.80;;;;;;4961108;28;20481;-77
2023/06/13 10:05:34;;;;;;;4.60;4.20;;;25.60;35.70;;;;;;4974019;28;20499;-77
2023/06/13 10:07:59;;;;;;;9.80;5.20;;;25.70;35.80;;;;;;4975270;29;20720;-76
2023/06/13 10:10:25;;;;;;;5.63;4.70;;;25.70;34.60;;;;;;4954532;29;20228;-79
2023/06/13 10:12:56;;;;;;;6.17;4.80;;;25.60;34.40;;;;;;4959189;29;20169;-77
2023/06/13 10:15:51;;;;;;;7.97;4.80;;;25.50;34.50;;;;;;4959896;28;20292;-77
2023/06/13 10:18:20;;;;;;;5.80;5.20;;;25.50;35.00;;;;;;4983255;28;20424;-77
2023/06/13 10:20:48;;;;;;;4.80;4.40;;;25.50;35.20;;;;;;4958249;28;20799;-76
2023/06/13 10:23:20;;;;;;;5.13;4.17;;;25.60;35.20;;;;;;4956733;29;20440;-79
2023/06/13 10:25:51;;;;;;;5.90;5.30;;;25.70;35.50;;;;;;4959117;28;20413;-78
2023/06/13 10:28:53;;;;;;;6.47;5.40;;;25.70;34.80;;;;;;4974289;29;20396;-79
2023/06/13 10:31:53;;;;;;;5.23;4.73;;;25.90;33.20;;;;;;4954511;29;20439;-77
2023/06/13 10:34:46;;;;;;;6.20;4.70;;;26.00;32.70;;;;;;4965579;28;20689;-78
2023/06/13 10:37:53;;;;;;;6.30;5.30;;;26.00;31.70;;;;;;4959940;28;20606;-77
2023/06/13 10:40:45;;;;;;;7.20;5.40;;;25.90;32.00;;;;;;4959484;28;20451;-78
2023/06/13 10:43:23;;;;;;;8.03;5.30;;;25.90;32.20;;;;;;4969398;29;20460;-79
2023/06/13 10:45:53;;;;;;;6.63;4.97;;;26.00;32.50;;;;;;4975280;28;20439;-79
2023/06/13 10:48:38;;;;;;;8.17;5.57;;;26.10;31.80;;;;;;4978959;28;20447;-78
2023/06/13 10:51:09;;;;;;;5.70;4.67;;;26.10;31.70;;;;;;4996434;28;20486;-80
2023/06/13 10:53:37;;;;;;;5.90;4.60;;;26.20;31.80;;;;;;4981678;28;20412;-79
2023/06/13 10:56:07;;;;;;;9.67;5.07;;;26.30;31.90;;;;;;4993104;28;20502;-79
2023/06/13 10:58:34;;;;;;;5.40;4.70;;;26.30;31.80;;;;;;4980761;28;20708;-79
2023/06/13 11:01:25;;;;;;;5.17;4.43;;;26.30;32.00;;;;;;4975304;29;20385;-79
2023/06/13 11:04:02;;;;;;;6.83;5.40;;;26.20;31.90;;;;;;4945802;29;20436;-80
2023/06/13 11:06:28;;;;;;;4.90;4.50;;;26.20;32.20;;;;;;4956250;29;20419;-79
2023/06/13 11:09:23;;;;;;;5.03;4.63;;;26.20;32.20;;;;;;4958413;29;20380;-78
2023/06/13 11:11:57;;;;;;;5.63;5.13;;;26.20;32.00;;;;;;4977437;29;20169;-79
2023/06/13 11:14:40;;;;;;;7.27;4.90;;;26.20;32.40;;;;;;4947074;29;20405;-80
2023/06/13 11:17:07;;;;;;;5.57;5.07;;;26.30;32.70;;;;;;4993043;28;20480;-80
2023/06/13 11:19:34;;;;;;;7.03;4.70;;;26.40;32.40;;;;;;4965273;28;20454;-80
2023/06/13 11:22:03;;;;;;;19.53;5.27;;;26.40;32.40;;;;;;4948968;28;20169;-80
2023/06/13 11:24:36;;;;;;;8.63;5.00;;;26.50;32.40;;;;;;4963894;28;20428;-79
2023/06/13 11:27:12;;;;;;;5.37;4.87;;;26.60;32.30;;;;;;4998156;28;20404;-81
2023/06/13 11:30:01;;;;;;;9.70;5.53;;;26.70;31.80;;;;;;4999200;28;20451;-81
2023/06/13 11:32:30;;;;;;;6.67;4.97;;;26.60;31.70;;;;;;4980207;28;20431;-81
2023/06/13 11:35:00;;;;;;;14.67;5.67;;;26.60;31.70;;;;;;4983834;28;20411;-80
2023/06/13 11:37:43;;;;;;;6.27;4.53;;;26.50;32.40;;;;;;4978106;28;20476;-80
2023/06/13 11:40:15;;;;;;;5.50;4.40;;;26.50;31.20;;;;;;4980365;28;20447;-79
2023/06/13 11:45:31;;;;;;;7.30;5.20;;;26.40;31.70;;;;;;4725015;26;20484;-81
2023/06/13 11:48:00;;;;;;;9.73;4.50;;;26.50;32.30;;;;;;4957347;29;20452;-80
2023/06/13 11:50:26;;;;;;;6.70;4.87;;;26.60;32.10;;;;;;4954203;29;20449;-78
2023/06/13 11:53:06;;;;;;;6.60;4.77;;;26.50;32.20;;;;;;4937573;29;20425;-79
2023/06/13 11:55:32;;;;;;;4.70;4.20;;;26.50;32.30;;;;;;4986739;28;20464;-76
2023/06/13 11:57:58;;;;;;;5.70;4.60;;;26.50;32.20;;;;;;4963286;29;20420;-79
2023/06/13 12:00:25;;;;;;;4.97;4.47;;;26.60;31.70;;;;;;4942582;29;20438;-78
2023/06/13 12:02:52;;;;;;;5.47;4.63;;;26.70;31.20;;;;;;4932871;29;20464;-77
2023/06/13 12:05:18;;;;;;;5.67;4.30;;;26.70;30.80;;;;;;4957756;29;20430;-79
2023/06/13 12:07:45;;;;;;;6.13;4.70;;;26.80;30.90;;;;;;4943867;29;20442;-79
2023/06/13 12:10:15;;;;;;;5.20;4.70;;;26.80;30.60;;;;;;4959107;29;20204;-79
2023/06/13 12:12:41;;;;;;;5.33;4.80;;;26.90;30.00;;;;;;4943413;29;20453;-79
2023/06/13 12:15:13;;;;;;;7.03;4.87;;;26.90;30.10;;;;;;4958419;29;20471;-80
2023/06/13 12:18:00;;;;;;;5.60;4.77;;;26.90;30.10;;;;;;4971756;29;20469;-79
2023/06/13 12:20:29;;;;;;;4.93;4.43;;;27.00;30.30;;;;;;4971406;29;20446;-79
2023/06/13 12:23:00;;;;;;;6.80;4.60;;;27.00;30.60;;;;;;4950907;29;20486;-78
2023/06/13 12:25:30;;;;;;;5.80;4.53;;;26.90;30.70;;;;;;4937113;29;20422;-78
2023/06/13 12:28:03;;;;;;;8.73;5.30;;;26.90;30.60;;;;;;4930722;29;20434;-78
2023/06/13 12:30:39;;;;;;;6.23;5.63;;;27.10;30.30;;;;;;4954305;29;20433;-78
2023/06/13 12:33:06;;;;;;;7.53;5.10;;;27.10;30.30;;;;;;4938794;29;20417;-77
2023/06/13 12:35:32;;;;;;;5.50;5.00;;;27.20;30.00;;;;;;4936732;29;20533;-76
2023/06/13 12:38:00;;;;;;;5.57;4.63;;;27.20;30.00;;;;;;4953306;29;20388;-78
2023/06/13 12:40:38;;;;;;;5.23;4.73;;;27.10;30.20;;;;;;4933254;29;20289;-77
2023/06/13 12:43:04;;;;;;;6.63;5.43;;;27.10;30.30;;;;;;4954572;29;20429;-79
2023/06/13 12:45:31;;;;;;;8.10;5.07;;;27.20;30.00;;;;;;4940010;29;20481;-79
2023/06/13 12:48:00;;;;;;;5.67;4.97;;;27.10;29.90;;;;;;4973573;28;20281;-79
2023/06/13 12:50:36;;;;;;;5.07;4.57;;;27.00;30.00;;;;;;4940916;29;20442;-80
2023/06/13 12:53:06;;;;;;;5.53;4.80;;;26.90;30.40;;;;;;4936472;29;20404;-76
2023/06/13 12:55:34;;;;;;;9.00;5.07;;;27.00;30.70;;;;;;4952894;29;20465;-76
2023/06/13 12:58:38;;;;;;;6.33;4.67;;;27.20;30.00;;;;;;4956222;29;20425;-79